Time;durP1;ratioP1;P1;durP2;ratioP2;P2;SDS_P1;SDS_P2;PMS_P1;PMS_P2;Temp;Humidity;BMP_temperature;BMP_pressure;BME280_temperature;BME280_humidity;BME280_pressure;Samples;Min_cycle;Max_cycle;Signal;HPM_P1;HPM_P2
2023/10/30 03:11:19;;;;;;;3.00;2.80;;;;;;;6.83;100.00;95004.63;7403971;19;20415;-93
2023/10/30 03:13:46;;;;;;;2.47;2.27;;;;;;;5.77;100.00;94858.78;7403579;19;20395;-92
2023/10/30 03:16:21;;;;;;;6.03;3.40;;;;;;;5.95;100.00;94876.91;7406036;19;20453;-93
2023/10/30 03:18:53;;;;;;;2.30;2.10;;;;;;;6.93;100.00;95029.63;7404273;19;20390;-93
2023/10/30 03:21:32;;;;;;;3.67;2.70;;;;;;;5.82;100.00;94842.06;7399850;19;20408;-93
2023/10/30 03:24:07;;;;;;;2.90;2.60;;;;;;;6.81;100.00;94999.69;7400332;19;20386;-93
2023/10/30 03:26:50;;;;;;;2.77;2.47;;;;;;;7.06;100.00;95044.25;7404051;19;20398;-93
2023/10/30 03:29:24;;;;;;;2.63;2.43;;;;;;;7.05;100.00;95038.22;7401218;19;20384;-93
2023/10/30 03:32:05;;;;;;;4.40;2.77;;;;;;;7.00;100.00;95035.84;7404295;19;20401;-93
2023/10/30 03:34:46;;;;;;;4.80;3.50;;;;;;;6.87;100.00;95041.47;7403608;19;20378;-93
2023/10/30 03:37:26;;;;;;;2.87;2.57;;;;;;;6.80;100.00;95028.91;7403109;19;20458;-92
2023/10/30 03:40:10;;;;;;;4.13;2.87;;;;;;;4.68;100.00;94713.75;7402286;19;20419;-92
2023/10/30 03:42:45;;;;;;;2.90;2.70;;;;;;;5.86;100.00;94871.75;7402720;19;20376;-93
2023/10/30 03:45:25;;;;;;;2.77;2.57;;;;;;;6.86;100.00;95039.97;7403594;19;20395;-92
2023/10/30 03:48:11;;;;;;;2.60;2.40;;;;;;;5.55;100.00;94854.03;7404322;19;20384;-93
2023/10/30 03:50:42;;;;;;;6.87;2.93;;;;;;;6.20;100.00;94949.22;7401745;19;20422;-93
2023/10/30 03:53:15;;;;;;;2.77;2.50;;;;;;;5.43;100.00;94825.22;7400810;19;20377;-93
2023/10/30 03:55:51;;;;;;;4.53;2.53;;;;;;;5.64;100.00;94878.25;7400526;19;20389;-92
2023/10/30 03:58:19;;;;;;;3.20;2.50;;;;;;;5.63;100.00;94890.63;7399946;19;20403;-93
2023/10/30 04:00:53;;;;;;;2.00;1.90;;;;;;;6.60;100.00;95033.25;7406639;19;20412;-93
2023/10/30 04:03:24;;;;;;;2.27;2.13;;;;;;;6.53;100.00;95057.41;7425300;19;20371;-93
2023/10/30 04:06:03;;;;;;;4.23;3.20;;;;;;;5.72;100.00;94942.16;7427345;19;20401;-93
2023/10/30 04:08:44;;;;;;;2.70;2.50;;;;;;;6.22;100.00;95042.25;7408729;19;20868;-93
2023/10/30 04:11:21;;;;;;;3.63;2.70;;;;;;;5.70;100.00;94963.47;7407592;19;20412;-93
2023/10/30 04:13:48;;;;;;;5.80;3.13;;;;;;;4.95;100.00;94855.56;7411241;19;20394;-91
2023/10/30 04:16:20;;;;;;;5.13;4.23;;;;;;;6.15;100.00;95031.56;7434897;19;20382;-94
2023/10/30 04:18:48;;;;;;;6.27;4.10;;;;;;;6.07;100.00;95011.44;7421767;19;20398;-93
2023/10/30 04:21:29;;;;;;;5.00;3.50;;;;;;;5.18;100.00;94867.13;7405956;19;20774;-92
2023/10/30 04:24:17;;;;;;;3.40;2.90;;;;;;;4.14;100.00;94711.31;7410034;19;20400;-93
2023/10/30 04:26:57;;;;;;;5.33;3.63;;;;;;;6.15;100.00;95020.31;7407888;19;20390;-93
2023/10/30 04:29:38;;;;;;;4.37;3.57;;;;;;;4.42;100.00;94763.03;7408691;19;20714;-93
2023/10/30 04:32:10;;;;;;;5.00;3.47;;;;;;;5.24;100.00;94868.47;7409118;19;20392;-93
2023/10/30 04:34:38;;;;;;;3.87;2.80;;;;;;;4.36;100.00;94743.38;7409554;19;20458;-93
2023/10/30 04:37:14;;;;;;;4.30;3.40;;;;;;;5.02;100.00;94856.53;7410750;19;20407;-93
2023/10/30 04:39:54;;;;;;;4.10;3.00;;;;;;;5.77;100.00;95010.13;7409036;19;20378;-93
2023/10/30 04:42:31;;;;;;;4.20;3.00;;;;;;;4.16;100.00;94760.69;7410234;19;20394;-93
2023/10/30 04:45:27;;;;;;;3.57;2.40;;;;;;;5.90;100.00;95016.94;7406468;19;20449;-93
2023/10/30 04:48:33;;;;;;;3.97;2.17;;;;;;;3.66;100.00;94688.44;7404034;19;20374;-91
2023/10/30 04:51:29;;;;;;;3.20;2.67;;;;;;;5.77;100.00;94995.16;7402417;19;20443;-93
2023/10/30 04:54:23;;;;;;;2.93;2.40;;;;;;;5.76;100.00;95019.84;7407008;19;20744;-93
2023/10/30 04:57:32;;;;;;;3.70;2.53;;;;;;;4.37;100.00;94823.38;7406017;19;20401;-92
2023/10/30 05:00:22;;;;;;;3.13;2.77;;;;;;;4.29;100.00;94832.09;7402127;19;20413;-92
2023/10/30 05:03:18;;;;;;;3.20;3.00;;;;;;;5.64;100.00;95019.84;7405735;19;20377;-93
2023/10/30 05:06:11;;;;;;;5.40;2.63;;;;;;;5.62;100.00;95012.31;7407232;19;20418;-93
2023/10/30 05:09:07;;;;;;;4.83;2.70;;;;;;;5.60;100.00;95018.94;7405720;19;20411;-94
2023/10/30 05:12:11;;;;;;;4.80;2.53;;;;;;;3.43;100.00;94697.69;7401892;19;20433;-93
2023/10/30 05:15:08;;;;;;;3.00;2.70;;;;;;;4.60;100.00;94868.25;7410000;19;20447;-91
2023/10/30 05:18:07;;;;;;;9.20;2.37;;;;;;;5.08;100.00;94971.59;7410239;19;20392;-93
2023/10/30 05:20:49;;;;;;;2.50;2.30;;;;;;;5.50;100.00;95029.88;7407780;19;20418;-93
2023/10/30 05:23:20;;;;;;;2.90;2.60;;;;;;;5.48;100.00;95029.44;7407210;19;20395;-93
2023/10/30 05:26:09;;;;;;;16.73;14.97;;;;;;;5.47;100.00;95030.50;7409070;19;20390;-93
2023/10/30 05:28:47;;;;;;;27.03;20.57;;;;;;;5.40;100.00;95023.19;7406840;19;20930;-93
2023/10/30 05:31:31;;;;;;;29.13;22.57;;;;;;;5.41;100.00;95011.59;7402454;19;20417;-94
2023/10/30 05:34:32;;;;;;;14.50;11.57;;;;;;;5.26;100.00;95026.09;7408783;19;20409;-92
2023/10/30 05:37:16;;;;;;;4.40;4.00;;;;;;;5.04;100.00;95019.34;7400915;19;20406;-93
2023/10/30 05:39:56;;;;;;;3.27;3.00;;;;;;;5.07;100.00;95011.94;7403237;19;20376;-92
2023/10/30 05:42:30;;;;;;;3.53;3.23;;;;;;;3.97;100.00;94844.06;7401552;19;20450;-93
2023/10/30 05:44:59;;;;;;;5.43;4.40;;;;;;;5.01;100.00;95027.88;7403573;19;20384;-93
2023/10/30 05:47:36;;;;;;;5.77;3.80;;;;;;;4.05;100.00;94859.69;7406545;19;20388;-94
2023/10/30 05:50:10;;;;;;;3.87;3.47;;;;;;;4.48;100.00;94950.09;7407719;19;20454;-93
2023/10/30 05:52:50;;;;;;;3.40;3.00;;;;;;;3.58;100.00;94817.28;7411538;19;20407;-93
2023/10/30 05:55:26;;;;;;;3.13;2.60;;;;;;;4.92;100.00;95034.25;7411139;19;20383;-93
2023/10/30 05:57:56;;;;;;;3.80;3.40;;;;;;;3.60;100.00;94832.63;7406149;19;20387;-93
2023/10/30 06:00:29;;;;;;;4.97;2.97;;;;;;;3.62;100.00;94833.13;7412473;19;20413;-92
2023/10/30 06:03:09;;;;;;;5.87;3.23;;;;;;;2.65;100.00;94687.81;7403672;19;20379;-92
2023/10/30 06:05:58;;;;;;;9.03;3.27;;;;;;;4.78;100.00;95004.97;7409728;19;20411;-94
2023/10/30 06:08:25;;;;;;;5.70;3.73;;;;;;;4.80;100.00;95034.22;7405998;19;20387;-93
2023/10/30 06:10:54;;;;;;;3.37;2.87;;;;;;;3.54;100.00;94832.84;7404821;19;20423;-92
2023/10/30 06:13:45;;;;;;;4.30;3.67;;;;;;;4.07;100.00;94890.75;7402660;19;20370;-93
2023/10/30 06:17:01;;;;;;;5.77;4.23;;;;;;;4.86;100.00;95051.28;7400211;19;20407;-93
2023/10/30 06:20:16;;;;;;;4.47;3.40;;;;;;;4.63;100.00;95035.13;7400785;19;20428;-93
2023/10/30 06:23:20;;;;;;;4.00;3.70;;;;;;;3.30;100.00;94837.13;7400059;19;20405;-91
2023/10/30 06:26:17;;;;;;;3.73;3.43;;;;;;;4.73;100.00;95035.50;7399743;19;20463;-93
2023/10/30 06:29:24;;;;;;;5.83;5.37;;;;;;;3.80;100.00;94858.78;7401198;19;20396;-93
2023/10/30 06:32:20;;;;;;;3.70;3.40;;;;;;;5.01;100.00;95025.25;7400963;19;20424;-92
2023/10/30 06:35:16;;;;;;;3.03;2.83;;;;;;;5.03;100.00;95046.63;7399930;19;20392;-93
2023/10/30 06:37:58;;;;;;;20.53;4.70;;;;;;;5.03;100.00;95038.78;7397116;19;20387;-93
2023/10/30 06:40:48;;;;;;;7.27;3.43;;;;;;;5.03;100.00;95044.03;7402492;19;20438;-93
2023/10/30 06:43:51;;;;;;;;;;;;;;;;;;;;;
2023/10/30 06:49:51;;;;;;;3.57;3.27;;;;;;;4.96;100.00;95037.78;7402133;19;20411;-92
2023/10/30 06:52:28;;;;;;;11.40;3.67;;;;;;;4.54;100.00;94972.38;7401098;19;20376;-91
2023/10/30 06:54:55;;;;;;;5.47;4.17;;;;;;;5.14;100.00;95033.91;7400287;19;20409;-91
2023/10/30 06:57:33;;;;;;;5.40;4.80;;;;;;;4.87;100.00;94982.09;7396546;19;20397;-92
2023/10/30 07:00:07;;;;;;;7.13;5.90;;;;;;;5.27;100.00;95024.25;7401347;19;20418;-92
2023/10/30 07:02:41;;;;;;;7.47;6.57;;;;;;;4.17;100.00;94830.22;7400784;19;20374;-92
2023/10/30 07:05:13;;;;;;;7.30;6.60;;;;;;;4.12;100.00;94812.84;7398254;19;20882;-92
2023/10/30 07:07:45;;;;;;;7.20;5.90;;;;;;;5.26;100.00;94988.66;7399511;19;20391;-92
2023/10/30 07:10:25;;;;;;;6.10;5.50;;;;;;;4.43;100.00;94850.88;7400790;19;20429;-92
2023/10/30 07:12:59;;;;;;;6.20;5.60;;;;;;;4.49;100.00;94870.53;7402650;19;20387;-92
2023/10/30 07:15:40;;;;;;;5.63;5.10;;;;;;;5.45;100.00;95015.09;7398721;19;20428;-92
2023/10/30 07:18:13;;;;;;;5.27;4.60;;;;;;;4.95;100.00;94931.50;7395800;19;20397;-92
2023/10/30 07:20:48;;;;;;;5.80;3.90;;;;;;;5.83;100.00;95048.91;7398318;19;20481;-93
2023/10/30 07:23:17;;;;;;;7.80;4.30;;;;;;;4.79;100.00;94888.69;7397670;19;20379;-92
2023/10/30 07:25:58;;;;;;;6.17;4.77;;;;;;;5.18;100.00;94955.44;7398738;19;20423;-91
2023/10/30 07:28:31;;;;;;;6.00;4.20;;;;;;;4.90;100.00;94876.72;7397011;19;20384;-92
2023/10/30 07:31:12;;;;;;;6.47;5.10;;;;;;;6.20;100.00;95077.81;7394855;19;20418;-92
2023/10/30 07:33:49;;;;;;;4.83;3.90;;;;;;;6.09;100.00;95019.00;7399105;19;20449;-92
2023/10/30 07:36:37;;;;;;;5.17;4.67;;;;;;;5.21;100.00;94876.22;7397069;19;20901;-92
2023/10/30 07:39:18;;;;;;;4.43;4.03;;;;;;;6.52;100.00;95082.16;7404146;19;20469;-92
2023/10/30 10:03:24;;;;;;;2.20;1.70;;;;;;;10.39;100.00;94935.28;7396581;19;20907;-90
2023/10/30 10:05:59;;;;;;;4.47;1.60;;;;;;;11.00;100.00;95010.03;7395287;19;20380;-89
2023/10/30 10:08:27;;;;;;;2.93;2.03;;;;;;;9.25;100.00;94743.75;7395858;19;20691;-89
2023/10/30 10:10:55;;;;;;;2.83;1.70;;;;;;;10.25;100.00;94887.56;7395159;19;20420;-90
2023/10/30 10:13:25;;;;;;;6.23;1.53;;;;;;;10.63;100.00;94918.97;7395251;19;20375;-90
2023/10/30 10:15:53;;;;;;;1.73;1.30;;;;;;;10.93;100.00;94957.81;7394781;19;20409;-90
2023/10/30 10:18:28;;;;;;;2.30;1.63;;;;;;;11.18;100.00;94992.47;7393766;19;20391;-90
2023/10/30 10:20:55;;;;;;;3.47;1.53;;;;;;;11.30;100.00;94989.56;7394757;19;20866;-90
2023/10/30 10:23:23;;;;;;;2.50;1.20;;;;;;;10.78;100.00;94868.91;7394583;19;20391;-90
2023/10/30 10:25:56;;;;;;;1.50;1.37;;;;;;;11.50;100.00;94977.69;6557928;19;15035987;-90
2023/10/30 10:28:24;;;;;;;2.63;1.20;;;;;;;11.28;100.00;94933.63;7394610;19;20442;-90
2023/10/30 10:30:53;;;;;;;1.40;1.30;;;;;;;10.52;100.00;94804.47;7394184;19;20394;-90
2023/10/30 10:33:27;;;;;;;1.90;1.40;;;;;;;11.37;100.00;94925.38;7398245;19;20420;-90
2023/10/30 10:35:56;;;;;;;4.17;1.33;;;;;;;10.52;100.00;94803.72;7393381;19;20371;-90
2023/10/30 10:38:23;;;;;;;1.43;1.00;;;;;;;10.97;100.00;94874.00;7391949;19;20796;-90
2023/10/30 10:40:51;;;;;;;5.30;1.37;;;;;;;11.74;100.00;94978.22;6616219;19;15037576;-90
2023/10/30 12:21:27;;;;;;;2.17;0.90;;;;;;;13.47;100.00;94815.63;7432274;19;20457;-96
2023/10/30 12:24:15;;;;;;;1.60;1.10;;;;;;;12.46;100.00;94625.06;7431523;19;20425;-96
2023/10/30 12:26:56;;;;;;;4.47;1.10;;;;;;;12.35;100.00;94622.41;7436355;19;20439;-96
2023/10/30 19:16:18;;;;;;;9.70;7.53;;;;;;;7.82;100.00;93977.03;7408371;19;20451;-95
2023/10/30 19:19:14;;;;;;;12.03;8.37;;;;;;;9.34;100.00;94192.34;7427055;19;20402;-95
2023/10/30 19:22:26;;;;;;;18.90;11.33;;;;;;;9.30;100.00;94184.41;7427108;19;20435;-95
2023/10/30 19:26:09;;;;;;;13.70;10.13;;;;;;;8.33;100.00;94029.59;7429969;19;20382;-95
2023/10/30 19:29:20;;;;;;;9.93;7.27;;;;;;;8.63;100.00;94084.72;7428685;19;20420;-94
2023/10/30 19:36:17;;;;;;;25.20;12.87;;;;;;;8.88;100.00;94100.63;7436775;19;20391;-95
2023/10/30 20:28:56;;;;;;;11.50;10.27;;;;;;;8.02;100.00;93853.91;7429572;19;20431;-94
2023/10/30 20:31:47;;;;;;;12.60;10.60;;;;;;;9.80;100.00;94112.59;7432578;19;20403;-92
2023/10/30 20:34:28;;;;;;;10.47;9.57;;;;;;;9.70;100.00;94122.00;7431209;19;20394;-96
2023/10/30 20:37:20;;;;;;;14.00;8.37;;;;;;;9.28;100.00;94064.63;7431569;19;20448;-94
2023/10/30 20:40:39;;;;;;;11.43;8.10;;;;;;;9.35;100.00;94085.75;7433741;19;20384;-93
2023/10/30 20:43:43;;;;;;;9.40;7.67;;;;;;;9.16;100.00;94090.22;7435535;19;20402;-94
2023/10/30 21:13:09;;;;;;;3.80;3.40;;;;;;;6.85;100.00;93807.41;7359041;19;20489;-93
2023/10/30 21:16:50;;;;;;;2.93;2.63;;;;;;;9.06;100.00;94127.06;7421516;19;20411;-94
2023/10/30 21:20:59;;;;;;;;;;;;;;;;;;;;;
2023/10/30 21:23:54;;;;;;;3.40;3.10;;;;;;;9.21;100.00;94141.06;7422863;19;20415;-92
2023/10/30 21:32:55;;;;;;;4.97;3.40;;;;;;;8.83;100.00;94122.09;7389997;19;20443;-93
2023/10/30 21:36:01;;;;;;;6.83;4.03;;;;;;;8.76;100.00;94114.13;7425564;19;20439;-94
2023/10/30 21:39:16;;;;;;;9.23;7.70;;;;;;;8.03;100.00;93979.06;7425044;19;20454;-92
2023/10/30 21:50:28;;;;;;;3.60;3.20;;;;;;;8.59;100.00;94033.91;7404438;19;20411;-90
2023/10/30 21:53:29;;;;;;;8.23;3.87;;;;;;;7.76;100.00;93925.91;7401068;19;20398;-89
2023/10/30 21:56:29;;;;;;;5.10;3.17;;;;;;;7.69;100.00;93950.28;7396544;19;20373;-90
2023/10/30 22:08:59;;;;;;;;;;;;;;;;;;;;;
2023/10/30 22:12:01;;;;;;;13.90;11.87;;;;;;;7.57;100.00;93982.13;7427473;19;20429;-94
2023/10/30 22:15:16;;;;;;;16.27;12.83;;;;;;;8.71;100.00;94154.00;7428015;19;20406;-94
2023/10/30 22:18:19;;;;;;;7.60;6.90;;;;;;;7.43;100.00;93984.63;7425063;19;20426;-94
2023/10/30 22:21:15;;;;;;;6.43;5.40;;;;;;;8.65;100.00;94161.47;7426911;19;20422;-94
2023/10/30 22:24:37;;;;;;;11.13;9.70;;;;;;;6.58;100.00;93843.56;7425532;19;20438;-96
2023/10/30 22:27:33;;;;;;;9.73;6.70;;;;;;;8.80;100.00;94144.63;7425494;19;20431;-95
2023/10/30 22:31:10;;;;;;;7.07;6.30;;;;;;;8.63;100.00;94142.66;7428584;19;20409;-95
2023/10/30 22:34:23;;;;;;;7.57;6.40;;;;;;;7.48;100.00;94011.34;7428243;19;20399;-96
2023/10/30 22:37:18;;;;;;;4.90;4.50;;;;;;;8.41;100.00;94173.34;7428614;19;20441;-96
2023/10/30 22:43:50;;;;;;;5.20;3.63;;;;;;;8.82;100.00;94170.63;7427886;19;20399;-95
2023/10/30 22:47:12;;;;;;;6.70;3.73;;;;;;;9.10;100.00;94183.97;7423547;19;20468;-95
2023/10/30 22:50:02;;;;;;;4.70;4.30;;;;;;;9.23;100.00;94183.66;7427385;19;20413;-94
2023/10/30 22:52:48;;;;;;;4.07;3.43;;;;;;;8.30;100.00;94031.09;7424355;19;20416;-94
2023/10/30 22:56:12;;;;;;;3.70;3.40;;;;;;;6.99;100.00;93859.28;7422198;19;20411;-94
2023/10/30 22:59:20;;;;;;;5.83;3.40;;;;;;;9.27;100.00;94200.97;7418060;19;20422;-95
2023/10/30 23:02:19;;;;;;;;;;;;;;;;;;;;;
2023/10/30 23:09:08;;;;;;;3.90;3.50;;;;;;;9.18;100.00;94217.13;7415976;19;20402;-94
2023/10/30 23:18:48;;;;;;;4.90;4.40;;;;;;;8.62;100.00;94114.81;7418692;19;20359;-96
2023/10/30 23:26:14;;;;;;;7.73;5.60;;;;;;;9.12;100.00;94215.22;7410683;19;20423;-94
2023/10/30 23:29:27;;;;;;;7.23;6.50;;;;;;;9.11;100.00;94229.53;7415054;19;20398;-96
2023/10/30 23:32:44;;;;;;;6.57;5.87;;;;;;;6.84;100.00;93874.19;7426756;19;20438;-95
2023/10/30 23:54:40;;;;;;;7.90;5.50;;;;;;;9.11;100.00;94197.91;7400401;19;20400;-91
2023/10/30 23:57:09;;;;;;;6.83;6.23;;;;;;;7.80;100.00;94010.84;7403500;19;20407;-91
2023/10/30 23:59:36;;;;;;;10.17;6.90;;;;;;;7.96;100.00;94033.13;7396686;19;20425;-90
